createdAt,value
2018-05-08T00:01:54.016Z,68.90
2018-05-08T00:04:21.548Z,70.00
2018-05-08T00:06:48.995Z,73.40
2018-05-08T00:09:16.439Z,71.80
2018-05-08T00:11:43.920Z,75.40
2018-05-08T00:14:11.359Z,74.10
2018-05-08T00:16:38.841Z,75.50
2018-05-08T00:19:06.267Z,74.80
2018-05-08T00:21:33.879Z,75.30
2018-05-08T00:24:01.320Z,76.20
2018-05-08T00:26:28.758Z,76.50
2018-05-08T00:28:56.210Z,77.40
2018-05-08T00:31:23.647Z,77.40
2018-05-08T00:33:51.851Z,78.00
2018-05-08T00:36:19.291Z,78.00
2018-05-08T00:38:46.745Z,77.30
2018-05-08T00:41:14.227Z,77.50
2018-05-08T00:43:41.688Z,78.00
2018-05-08T00:46:09.123Z,78.00
2018-05-08T00:48:36.599Z,78.40
2018-05-08T00:51:04.042Z,77.50
2018-05-08T00:53:31.534Z,77.20
2018-05-08T00:55:58.951Z,77.20
2018-05-08T00:58:26.439Z,77.20
2018-05-08T01:00:53.854Z,78.40
2018-05-08T01:03:21.339Z,79.70
2018-05-08T01:05:48.775Z,79.00
2018-05-08T01:08:16.986Z,79.20
2018-05-08T01:10:44.419Z,79.10
2018-05-08T01:13:11.859Z,79.90
2018-05-08T01:15:40.090Z,79.80
2018-05-08T01:18:07.518Z,79.60
2018-05-08T01:20:35.030Z,80.40
2018-05-08T01:23:02.467Z,80.10
2018-05-08T01:25:29.908Z,80.00
2018-05-08T01:27:57.342Z,80.00
2018-05-08T01:30:24.774Z,79.80
2018-05-08T01:32:52.991Z,79.60
2018-05-08T01:35:20.406Z,79.40
2018-05-08T01:37:48.623Z,80.20
2018-05-08T01:40:16.069Z,80.10
2018-05-08T01:42:43.491Z,80.00
2018-05-08T01:45:11.726Z,81.30
2018-05-08T01:47:39.156Z,81.10
2018-05-08T01:50:06.608Z,80.90
2018-05-08T01:52:34.080Z,80.80
2018-05-08T01:55:01.520Z,81.10
2018-05-08T01:57:29.125Z,81.30
2018-05-08T01:59:56.628Z,82.30
2018-05-08T02:02:24.815Z,82.60
2018-05-08T02:04:52.249Z,82.50
2018-05-08T02:07:20.450Z,81.90
2018-05-08T02:09:47.879Z,81.90
2018-05-08T02:12:16.084Z,81.50
2018-05-08T02:14:43.559Z,81.50
2018-05-08T02:17:10.991Z,82.10
2018-05-08T02:19:38.423Z,83.00
2018-05-08T02:22:06.645Z,83.50
2018-05-08T02:24:34.111Z,83.40
2018-05-08T02:27:01.553Z,83.20
2018-05-08T02:29:28.998Z,83.30
2018-05-08T02:31:56.423Z,83.40
2018-05-08T02:34:23.887Z,83.70
2018-05-08T02:36:51.317Z,83.80
2018-05-08T02:39:18.741Z,84.00
2018-05-08T02:41:46.320Z,85.00
2018-05-08T02:44:13.773Z,86.20
2018-05-08T02:46:41.199Z,84.90
2018-05-08T02:49:08.627Z,84.90
2018-05-08T02:51:36.062Z,85.70
2018-05-08T02:54:03.491Z,85.40
2018-05-08T02:56:30.918Z,85.10
2018-05-08T02:58:59.136Z,85.00
2018-05-08T03:01:26.543Z,84.80
2018-05-08T03:03:54.746Z,85.60
2018-05-08T03:06:22.180Z,85.50
2018-05-08T03:08:50.389Z,85.20
2018-05-08T03:11:17.816Z,85.10
2018-05-08T03:13:46.171Z,85.50
2018-05-08T03:16:13.614Z,86.10
2018-05-08T03:18:41.052Z,85.00
2018-05-08T03:21:08.499Z,86.20
2018-05-08T03:23:35.954Z,86.00
2018-05-08T03:26:03.412Z,86.90
2018-05-08T03:28:30.844Z,86.90
2018-05-08T03:30:59.051Z,86.70
2018-05-08T03:33:26.471Z,86.60
2018-05-08T03:35:53.975Z,86.10
2018-05-08T03:38:21.409Z,87.10
2018-05-08T03:40:48.894Z,86.40
2018-05-08T03:43:16.308Z,86.50
2018-05-08T03:45:43.739Z,86.10
2018-05-08T03:48:11.260Z,86.50
2018-05-08T03:50:38.690Z,86.70
2018-05-08T03:53:06.127Z,86.60
2018-05-08T03:55:33.555Z,86.80
2018-05-08T03:58:00.989Z,87.60
2018-05-08T04:00:40.526Z,87.20
2018-05-08T04:03:19.879Z,87.00
2018-05-08T04:09:01.775Z,87.10
2018-05-08T04:11:29.238Z,87.30
2018-05-08T04:13:56.692Z,87.50
2018-05-08T04:16:24.245Z,87.20
2018-05-08T04:18:51.669Z,86.80
2018-05-08T04:21:19.889Z,87.10
2018-05-08T04:23:47.352Z,87.00
2018-05-08T04:26:14.796Z,87.00
2018-05-08T04:28:42.220Z,86.90
2018-05-08T04:31:10.424Z,86.70
2018-05-08T04:33:37.861Z,86.70
2018-05-08T04:36:05.302Z,86.60
2018-05-08T04:38:33.491Z,87.80
2018-05-08T04:41:00.979Z,87.80
2018-05-08T04:43:28.419Z,87.50
2018-05-08T04:45:56.635Z,87.10
2018-05-08T04:48:24.062Z,86.90
2018-05-08T04:50:51.504Z,86.60
2018-05-08T04:53:18.988Z,87.20
2018-05-08T04:55:46.728Z,86.40
2018-05-08T04:58:14.075Z,87.00
2018-05-08T05:00:41.550Z,85.80
2018-05-08T05:03:09.775Z,86.60
2018-05-08T05:05:37.194Z,86.50
2018-05-08T05:08:04.671Z,86.50
2018-05-08T05:10:32.124Z,85.90
2018-05-08T05:12:59.560Z,86.20
2018-05-08T05:15:27.008Z,85.40
2018-05-08T05:17:54.459Z,85.60
2018-05-08T05:20:21.899Z,84.90
2018-05-08T05:22:50.099Z,85.50
2018-05-08T05:25:17.535Z,85.50
2018-05-08T05:27:46.677Z,85.10
2018-05-08T05:30:14.103Z,85.00
2018-05-08T05:32:41.616Z,84.40
2018-05-08T05:35:09.043Z,84.70
2018-05-08T05:37:36.483Z,84.60
2018-05-08T05:40:03.915Z,84.30
2018-05-08T05:42:32.149Z,83.50
2018-05-08T05:44:59.586Z,83.40
2018-05-08T05:47:27.015Z,83.30
2018-05-08T05:49:54.516Z,82.60
2018-05-08T05:52:21.975Z,82.50
2018-05-08T05:54:49.409Z,82.40
2018-05-08T05:57:16.845Z,81.50
2018-05-08T05:59:45.048Z,81.70
2018-05-08T06:02:12.546Z,81.70
2018-05-08T06:04:39.976Z,81.20
2018-05-08T06:07:07.425Z,80.50
2018-05-08T06:09:34.882Z,81.10
2018-05-08T06:12:02.452Z,80.40
2018-05-08T06:14:30.531Z,80.10
2018-05-08T06:16:57.970Z,80.10
2018-05-08T06:19:25.408Z,79.60
2018-05-08T06:21:53.020Z,78.90
2018-05-08T06:24:20.455Z,78.40
2018-05-08T06:26:47.899Z,78.00
2018-05-08T06:29:15.337Z,78.30
2018-05-08T06:31:42.835Z,78.30
2018-05-08T06:34:10.274Z,76.30
2018-05-08T06:36:37.699Z,71.10
2018-05-08T06:39:05.905Z,54.60
2018-05-08T06:41:33.327Z,54.40
2018-05-08T06:44:01.530Z,44.80
2018-05-08T06:46:29.011Z,44.70
2018-05-08T06:48:56.463Z,41.00
2018-05-08T06:51:23.891Z,38.30
2018-05-08T06:53:51.378Z,36.50
2018-05-08T06:56:18.830Z,34.60
2018-05-08T06:58:46.915Z,33.40
2018-05-08T07:01:14.378Z,31.80
2018-05-08T07:03:41.804Z,30.50
2018-05-08T07:06:09.230Z,30.00
2018-05-08T07:08:37.429Z,29.00
2018-05-08T07:11:04.901Z,29.00
2018-05-08T07:13:32.314Z,28.70
2018-05-08T07:15:59.873Z,28.30
2018-05-08T07:18:27.173Z,28.20
2018-05-08T07:20:54.608Z,27.70
2018-05-08T07:23:22.037Z,27.80
2018-05-08T07:25:49.475Z,27.70
2018-05-08T07:28:16.929Z,27.40
2018-05-08T07:30:44.362Z,27.50
2018-05-08T07:33:11.787Z,27.30
2018-05-08T07:35:40.005Z,26.80
2018-05-08T07:38:07.438Z,26.80
2018-05-08T07:40:35.628Z,27.10
2018-05-08T07:43:03.051Z,27.00
2018-05-08T07:45:31.359Z,26.80
2018-05-08T07:47:58.812Z,26.80
2018-05-08T07:50:26.239Z,26.00
2018-05-08T07:52:54.530Z,24.90
2018-05-08T07:55:21.976Z,24.90
2018-05-08T07:57:50.174Z,25.20
2018-05-08T08:00:17.599Z,25.10
2018-05-08T08:02:46.634Z,24.80
2018-05-08T08:05:14.066Z,24.80
2018-05-08T08:07:41.496Z,24.90
2018-05-08T08:10:08.926Z,24.60
2018-05-08T08:12:36.359Z,25.40
2018-05-08T08:15:03.802Z,25.70
2018-05-08T08:17:31.987Z,26.20
2018-05-08T08:19:59.425Z,26.10
2018-05-08T08:22:27.715Z,26.50
2018-05-08T08:24:55.160Z,26.50
2018-05-08T08:27:23.348Z,25.50
2018-05-08T08:29:50.816Z,25.40
2018-05-08T08:32:18.996Z,24.90
2018-05-08T08:34:46.983Z,24.80
2018-05-08T08:37:14.420Z,24.80
2018-05-08T08:39:41.862Z,24.50
2018-05-08T08:42:09.359Z,24.40
2018-05-08T08:44:36.767Z,24.50
2018-05-08T08:47:04.969Z,24.70
2018-05-08T08:49:32.402Z,24.70
2018-05-08T08:52:00.602Z,25.00
2018-05-08T08:54:28.080Z,25.00
2018-05-08T08:56:55.528Z,25.20
2018-05-08T08:59:22.952Z,25.10
2018-05-08T09:01:50.490Z,25.10
2018-05-08T09:04:17.934Z,25.40
2018-05-08T09:06:45.362Z,25.60
2018-05-08T09:09:12.796Z,24.40
2018-05-08T09:11:40.236Z,23.90
2018-05-08T09:14:08.433Z,24.70
2018-05-08T09:16:35.881Z,24.20
2018-05-08T09:19:03.306Z,24.70
2018-05-08T09:21:31.509Z,23.40
2018-05-08T09:23:58.935Z,23.30
2018-05-08T09:26:26.763Z,23.00
2018-05-08T09:28:54.272Z,23.40
2018-05-08T09:31:22.475Z,23.40
2018-05-08T09:33:49.911Z,23.40
2018-05-08T09:36:18.107Z,22.80
2018-05-08T09:38:45.535Z,22.80
2018-05-08T09:41:14.626Z,23.50
2018-05-08T09:43:42.084Z,23.40
2018-05-08T09:46:09.519Z,23.50
2018-05-08T09:48:36.946Z,24.40
2018-05-08T09:51:04.385Z,23.10
2018-05-08T09:53:31.820Z,23.10
2018-05-08T09:56:00.016Z,22.50
2018-05-08T09:58:27.448Z,22.40
2018-05-08T10:00:56.514Z,21.70
2018-05-08T10:03:23.919Z,21.70
2018-05-08T10:05:51.358Z,21.40
2018-05-08T10:08:19.576Z,21.60
2018-05-08T10:10:47.938Z,21.20
2018-05-08T10:13:16.093Z,21.40
2018-05-08T10:15:43.498Z,20.20
2018-05-08T10:18:10.930Z,20.40
2018-05-08T10:20:38.380Z,21.50
2018-05-08T10:23:06.584Z,21.60
2018-05-08T10:25:34.237Z,21.60
2018-05-08T10:28:01.653Z,21.40
2018-05-08T10:30:29.857Z,21.80
2018-05-08T10:32:57.332Z,21.80
2018-05-08T10:35:25.502Z,22.40
2018-05-08T10:37:52.915Z,22.30
2018-05-08T10:40:21.111Z,21.50
2018-05-08T10:42:49.415Z,21.20
2018-05-08T10:45:16.743Z,21.20
2018-05-08T10:47:44.200Z,21.00
2018-05-08T10:50:12.411Z,21.20
2018-05-08T10:52:39.844Z,21.10
2018-05-08T10:55:07.272Z,21.10
2018-05-08T10:57:35.475Z,19.60
2018-05-08T11:00:02.898Z,19.60
2018-05-08T11:02:30.332Z,20.20
2018-05-08T11:04:57.764Z,19.80
2018-05-08T11:07:25.199Z,19.30
2018-05-08T11:09:52.638Z,20.10
2018-05-08T11:12:20.831Z,19.70
2018-05-08T11:14:48.266Z,19.60
2018-05-08T11:17:16.522Z,20.40
2018-05-08T11:19:43.987Z,20.40
2018-05-08T11:22:11.427Z,18.80
2018-05-08T11:24:38.839Z,20.20
2018-05-08T11:27:06.266Z,19.90
2018-05-08T11:29:34.471Z,19.00
2018-05-08T11:32:02.112Z,19.00
2018-05-08T11:34:30.316Z,20.10
2018-05-08T11:36:58.508Z,19.50
2018-05-08T11:39:26.069Z,19.40
2018-05-08T11:41:53.364Z,19.10
2018-05-08T11:44:20.904Z,19.70
2018-05-08T11:46:48.506Z,19.50
2018-05-08T11:49:16.743Z,17.80
2018-05-08T11:51:44.167Z,17.70
2018-05-08T11:54:11.662Z,18.10
2018-05-08T11:56:39.087Z,19.00
2018-05-08T11:59:06.524Z,18.30
2018-05-08T12:01:34.107Z,18.10
2018-05-08T12:04:01.557Z,17.90
2018-05-08T12:06:29.011Z,17.00
2018-05-08T12:08:56.436Z,16.90
2018-05-08T12:11:24.640Z,16.90
2018-05-08T12:13:52.065Z,16.90
2018-05-08T12:16:20.262Z,17.40
2018-05-08T12:18:47.695Z,17.40
2018-05-08T12:21:15.887Z,17.50
2018-05-08T12:23:43.339Z,17.40
2018-05-08T12:26:10.743Z,18.20
2018-05-08T12:28:38.184Z,16.70
2018-05-08T12:31:05.631Z,16.80
2018-05-08T12:33:33.065Z,17.60
2018-05-08T12:36:01.258Z,17.10
2018-05-08T12:38:28.699Z,17.00
2018-05-08T12:40:56.971Z,16.10
2018-05-08T12:43:25.163Z,17.60
2018-05-08T12:45:52.607Z,17.60
2018-05-08T12:48:20.799Z,17.70
2018-05-08T12:50:48.308Z,17.60
2018-05-08T12:53:15.783Z,16.70
2018-05-08T12:55:43.218Z,16.50
2018-05-08T12:58:10.648Z,16.60
2018-05-08T13:00:38.069Z,17.10
2018-05-08T13:03:06.269Z,17.80
2018-05-08T13:05:33.696Z,17.80
2018-05-08T13:08:01.911Z,17.40
2018-05-08T13:10:29.345Z,17.40
2018-05-08T13:12:56.960Z,17.50
2018-05-08T13:15:24.443Z,18.00
2018-05-08T13:17:51.865Z,17.10
2018-05-08T13:20:19.297Z,17.00
2018-05-08T13:22:48.419Z,17.80
2018-05-08T13:25:16.068Z,17.80
2018-05-08T13:27:43.503Z,17.80
2018-05-08T13:30:10.937Z,17.70
2018-05-08T13:32:39.141Z,18.50
2018-05-08T13:35:06.578Z,18.50
2018-05-08T13:37:34.784Z,17.00
2018-05-08T13:40:02.228Z,17.00
2018-05-08T13:42:29.656Z,17.30
2018-05-08T13:44:57.855Z,18.00
2018-05-08T13:47:25.283Z,18.30
2018-05-08T13:49:52.728Z,16.90
2018-05-08T13:52:20.152Z,16.90
2018-05-08T13:54:47.623Z,17.80
2018-05-08T13:57:15.141Z,16.90
2018-05-08T13:59:43.336Z,17.30
2018-05-08T14:02:11.680Z,17.20
2018-05-08T14:04:39.880Z,17.70
2018-05-08T14:07:07.321Z,17.70
2018-05-08T14:09:35.509Z,18.20
2018-05-08T14:12:02.956Z,18.20
2018-05-08T14:14:31.144Z,17.90
2018-05-08T14:16:58.612Z,17.80
2018-05-08T14:19:26.215Z,17.90
2018-05-08T14:21:54.224Z,17.70
2018-05-08T14:24:21.683Z,17.70
2018-05-08T14:26:49.426Z,17.60
2018-05-08T14:29:16.943Z,17.60
2018-05-08T14:31:44.545Z,18.00
2018-05-08T14:34:11.910Z,17.60
2018-05-08T14:36:40.103Z,18.00
2018-05-08T14:39:07.533Z,18.00
2018-05-08T14:41:35.726Z,18.90
2018-05-08T14:44:04.002Z,18.50
2018-05-08T14:46:32.208Z,19.30
2018-05-08T14:48:59.721Z,19.20
2018-05-08T14:51:27.141Z,19.90
2018-05-08T14:53:56.004Z,20.20
2018-05-08T14:56:23.428Z,21.50
2018-05-08T14:58:52.998Z,21.10
2018-05-08T15:01:20.411Z,21.60
2018-05-08T15:03:47.867Z,22.10
2018-05-08T15:06:15.399Z,21.90
2018-05-08T15:08:42.807Z,23.30
2018-05-08T15:11:10.251Z,22.60
2018-05-08T15:13:37.699Z,22.70
2018-05-08T15:16:05.135Z,22.90
2018-05-08T15:18:33.331Z,23.60
2018-05-08T15:21:00.757Z,23.50
2018-05-08T15:23:28.179Z,23.40
2018-05-08T15:25:55.617Z,23.80
2018-05-08T15:28:23.067Z,23.90
2018-05-08T15:30:50.496Z,24.40
2018-05-08T15:33:18.695Z,25.10
2018-05-08T15:35:46.128Z,25.10
2018-05-08T15:38:14.395Z,24.30
2018-05-08T15:40:41.897Z,24.30
2018-05-08T15:43:09.505Z,24.10
2018-05-08T15:45:37.108Z,24.80
2018-05-08T15:48:04.600Z,25.20
2018-05-08T15:50:32.044Z,24.00
2018-05-08T15:52:59.468Z,24.50
2018-05-08T15:55:34.786Z,24.60
2018-05-08T15:58:02.340Z,24.60
2018-05-08T16:00:29.776Z,24.30
2018-05-08T16:02:57.313Z,24.40
2018-05-08T16:05:26.037Z,25.20
2018-05-08T16:07:53.661Z,25.20
2018-05-08T16:10:21.132Z,25.60
2018-05-08T16:12:51.751Z,25.60
2018-05-08T16:15:19.295Z,26.20
2018-05-08T16:17:48.844Z,26.00
2018-05-08T16:20:16.288Z,26.70
2018-05-08T16:23:04.040Z,26.50
2018-05-08T16:25:33.822Z,26.70
2018-05-08T16:28:03.170Z,26.80
2018-05-08T16:30:30.673Z,27.10
2018-05-08T16:32:58.015Z,27.00
2018-05-08T16:35:26.223Z,27.70
2018-05-08T16:37:53.657Z,27.70
2018-05-08T16:40:21.079Z,28.00
2018-05-08T16:42:48.503Z,27.60
2018-05-08T16:45:15.947Z,28.30
2018-05-08T16:47:43.371Z,27.40
2018-05-08T16:50:11.735Z,28.20
2018-05-08T16:52:40.030Z,28.70
2018-05-08T16:55:08.240Z,28.70
2018-05-08T16:57:35.668Z,28.60
2018-05-08T17:00:03.858Z,28.60
2018-05-08T17:02:31.283Z,28.60
2018-05-08T17:04:59.641Z,28.90
2018-05-08T17:07:27.075Z,28.90
2018-05-08T17:09:54.526Z,28.90
2018-05-08T17:12:22.040Z,28.70
2018-05-08T17:14:49.444Z,29.70
2018-05-08T17:17:16.879Z,29.00
2018-05-08T17:19:44.305Z,29.20
2018-05-08T17:22:11.740Z,30.00
2018-05-08T17:24:39.266Z,29.80
2018-05-08T17:27:07.513Z,29.60
2018-05-08T17:29:34.939Z,30.00
2018-05-08T17:32:02.477Z,30.10
2018-05-08T17:34:29.934Z,30.70
2018-05-08T17:36:57.372Z,30.40
2018-05-08T17:39:24.803Z,30.90
2018-05-08T17:41:52.240Z,30.70
2018-05-08T17:44:19.738Z,32.00
2018-05-08T17:46:48.087Z,32.00
2018-05-08T17:49:16.741Z,32.10
2018-05-08T17:51:44.175Z,32.00
2018-05-08T17:54:12.408Z,31.10
2018-05-08T17:56:39.908Z,31.70
2018-05-08T17:59:07.336Z,32.20
2018-05-08T18:01:34.768Z,32.30
2018-05-08T18:04:02.215Z,32.70
2018-05-08T18:06:29.805Z,32.50
2018-05-08T18:08:57.996Z,32.90
2018-05-08T18:11:25.456Z,32.90
2018-05-08T18:13:53.633Z,33.60
2018-05-08T18:16:21.195Z,33.50
2018-05-08T18:18:48.620Z,34.30
2018-05-08T18:21:16.818Z,34.70
2018-05-08T18:23:44.255Z,34.70
2018-05-08T18:26:12.453Z,35.50
2018-05-08T18:28:40.030Z,35.40
2018-05-08T18:31:07.458Z,35.60
2018-05-08T18:33:35.665Z,35.90
2018-05-08T18:36:03.106Z,35.90
2018-05-08T18:38:30.523Z,36.00
2018-05-08T18:40:57.962Z,36.30
2018-05-08T18:43:25.403Z,36.50
2018-05-08T18:45:52.855Z,37.00
2018-05-08T18:48:20.456Z,36.40
2018-05-08T18:50:48.297Z,36.60
2018-05-08T18:53:15.757Z,36.60
2018-05-08T18:55:43.231Z,37.30
2018-05-08T18:58:10.672Z,37.40
2018-05-08T19:00:43.807Z,37.70
2018-05-08T19:03:12.037Z,38.40
2018-05-08T19:05:39.475Z,38.50
2018-05-08T19:08:06.941Z,38.80
2018-05-08T19:10:34.381Z,38.80
2018-05-08T19:13:01.886Z,39.60
2018-05-08T19:15:34.985Z,40.10
2018-05-08T19:18:02.425Z,40.30
2018-05-08T19:20:30.611Z,40.40
2018-05-08T19:22:58.050Z,40.40
2018-05-08T19:25:25.892Z,40.20
2018-05-08T19:27:53.319Z,40.70
2018-05-08T19:30:27.230Z,40.90
2018-05-08T19:32:54.940Z,40.90
2018-05-08T19:35:27.962Z,41.00
2018-05-08T19:38:01.930Z,42.20
2018-05-08T19:40:29.348Z,42.20
2018-05-08T19:42:57.552Z,42.30
2018-05-08T19:45:24.995Z,42.30
2018-05-08T19:47:53.180Z,42.20
2018-05-08T19:50:20.775Z,42.10
2018-05-08T19:52:48.431Z,42.10
2018-05-08T19:55:16.022Z,42.70
2018-05-08T19:57:44.346Z,42.70
2018-05-08T20:00:11.668Z,42.70
2018-05-08T20:02:39.872Z,43.80
2018-05-08T20:05:07.297Z,43.70
2018-05-08T20:07:35.513Z,45.70
2018-05-08T20:10:02.937Z,45.20
2018-05-08T20:12:31.131Z,45.70
2018-05-08T20:14:58.564Z,45.70
2018-05-08T20:17:26.759Z,46.10
2018-05-08T20:19:54.190Z,46.10
2018-05-08T20:22:22.393Z,46.00
2018-05-08T20:24:49.835Z,46.00
2018-05-08T20:27:18.040Z,47.10
2018-05-08T20:29:45.476Z,47.10
2018-05-08T20:32:12.911Z,47.60
2018-05-08T20:34:41.098Z,47.30
2018-05-08T20:37:08.534Z,47.10
2018-05-08T20:39:35.950Z,49.00
2018-05-08T20:42:03.387Z,49.20
2018-05-08T20:44:31.586Z,47.70
2018-05-08T20:46:59.009Z,48.10
2018-05-08T20:49:26.487Z,48.70
2018-05-08T20:51:53.892Z,48.70
2018-05-08T20:54:21.383Z,49.20
2018-05-08T20:56:48.810Z,49.30
2018-05-08T20:59:16.457Z,49.40
2018-05-08T21:01:43.898Z,48.90
2018-05-08T21:04:11.345Z,48.90
2018-05-08T21:06:38.767Z,48.00
2018-05-08T21:09:07.059Z,46.60
2018-05-08T21:11:34.437Z,46.60
2018-05-08T21:14:01.887Z,43.30
2018-05-08T21:16:29.302Z,43.30
2018-05-08T21:18:57.514Z,41.90
2018-05-08T21:21:24.927Z,41.90
2018-05-08T21:23:53.659Z,43.30
2018-05-08T21:26:21.080Z,42.70
2018-05-08T21:28:54.151Z,40.50
2018-05-08T21:31:21.587Z,41.70
2018-05-08T21:33:49.026Z,42.00
2018-05-08T21:36:16.443Z,41.90
2018-05-08T21:38:44.644Z,43.90
2018-05-08T21:41:12.063Z,43.80
2018-05-08T21:43:39.499Z,43.80
2018-05-08T21:46:06.935Z,45.50
2018-05-08T21:48:34.371Z,45.60
2018-05-08T21:51:01.802Z,46.10
2018-05-08T21:53:29.999Z,44.90
2018-05-08T21:55:57.434Z,44.80
2018-05-08T21:58:25.658Z,46.60
2018-05-08T22:00:53.108Z,46.60
2018-05-08T22:03:20.538Z,47.50
2018-05-08T22:05:48.755Z,49.40
2018-05-08T22:08:16.195Z,49.20
2018-05-08T22:10:44.205Z,49.70
2018-05-08T22:13:11.639Z,50.10
2018-05-08T22:15:39.062Z,50.50
2018-05-08T22:18:06.510Z,49.90
2018-05-08T22:20:34.699Z,51.50
2018-05-08T22:23:02.132Z,51.50
2018-05-08T22:25:30.343Z,49.90
2018-05-08T22:27:57.801Z,49.90
2018-05-08T22:30:25.210Z,50.40
2018-05-08T22:32:52.638Z,50.60
2018-05-08T22:35:20.066Z,50.40
2018-05-08T22:37:47.502Z,51.20
2018-05-08T22:40:15.715Z,50.80
2018-05-08T22:42:43.131Z,51.30
2018-05-08T22:45:11.344Z,51.60
2018-05-08T22:47:38.778Z,51.60
2018-05-08T22:50:06.209Z,51.50
2018-05-08T22:52:34.394Z,50.70
2018-05-08T22:55:01.839Z,50.50
2018-05-08T22:57:30.030Z,47.80
2018-05-08T22:59:58.235Z,46.70
2018-05-08T23:02:25.664Z,46.60
2018-05-08T23:04:53.865Z,46.10
2018-05-08T23:07:21.295Z,46.10
2018-05-08T23:09:48.876Z,45.20
2018-05-08T23:12:16.316Z,45.10
2018-05-08T23:14:44.520Z,44.60
2018-05-08T23:17:11.980Z,44.50
2018-05-08T23:19:39.391Z,44.40
2018-05-08T23:22:07.592Z,44.40
2018-05-08T23:24:35.019Z,44.30
2018-05-08T23:27:03.215Z,43.90
2018-05-08T23:29:30.660Z,43.90
2018-05-08T23:31:58.067Z,43.80
2018-05-08T23:34:25.510Z,44.10
2018-05-08T23:36:52.930Z,43.90
2018-05-08T23:39:21.130Z,43.90
2018-05-08T23:41:48.934Z,43.90
2018-05-08T23:44:16.377Z,44.20
2018-05-08T23:46:43.832Z,43.90
2018-05-08T23:49:11.262Z,44.10
2018-05-08T23:51:39.395Z,44.00
2018-05-08T23:54:06.820Z,44.40
2018-05-08T23:56:34.251Z,45.00
2018-05-08T23:59:01.687Z,45.70
